Aérodrome :
LOGIN :

S'inscrire | Disclaimer

   EN    FR    IT 

 










Légende :    VFR   VFR Marginal   IFR   IFR Intensif   IFR Très Intensif
Visi : 
Plafond : 
>= 8 km
>= 3000ft
5 à 8 km
1000 à 3000 ft
1500m à 5 km
500 à 1000 ft
800 à 1500m
200 à 500 ft
< 800m
< 200 ft
Symboles :   Orages  Brouillard  Fortes neiges  Fortes précipitations  Vent > 20 kt
SIGMETs :   Divers  Orages  Givrage  Turbulence  Onde Orograph.  Cendres Volcan.






- Altitude de l'aérodrome : 1213 ft
- Code IATA : SCQ


LEST - Santiago de Compostela

DERNIER METAR :
  • 270000Z 20015KT 170V230 4000 -RA SCT006 BKN014 BKN020 10/09 Q1018 RERA TEMPO 1500 BKN004

METARs EXPIRÉS :
  • 262347Z 20018G32KT 170V230 5000 -RA SCT009 BKN015 BKN020 10/09 Q1018 RERA TEMPO 1500 BKN004
  • 262330Z 20017G28KT 170V240 5000 RA BKN006 BKN010 BKN019 10/09 Q1018 TEMPO 1500 BKN004
  • 262300Z 21012KT 170V240 3000 RA BKN006 BKN008 BKN021 10/09 Q1019 TEMPO 1500 BKN004
  • 262230Z 21012KT 170V250 5000 -RA SCT006 BKN011 BKN021 10/09 Q1019 TEMPO 3000 RA BKN010
  • 262200Z 21014KT 170V240 8000 -RA BKN012 BKN020 BKN032 10/09 Q1019 TEMPO 3000 RA BKN010
  • 262150Z 20013KT 170V240 5000 -RA BKN011 BKN022 BKN035 10/09 Q1019 TEMPO 3000 RA BKN010
  • 262130Z 21015G27KT 170V240 8000 -RA FEW008 SCT032 BKN045 10/09 Q1019 TEMPO 3000 RA BKN010

TAF TAF LEST
Valide du 27 à 00h jusqu'au 28 à 00h UTC


262300Z 2700/2724 21012KT 6000 SCT010 BKN018 TX11/2703Z TN08/2800Z
TEMPO 2700/2724 22016G28KT 3000 -RA BR BKN010
TEMPO 2700/2710 1500 RA BKN005
PROB40
TEMPO 2702/2708 27010KT 0350 +RA FG VV001
TEMPO 2718/2724 27015G25KT 1500 RA SHRA BKN005 SCT020TCU



MET'MAP, la Météo Aéronautique d'un coup d'oeil ! - Copyright ORBIFLY Décembre 2007 - Disclaimer

ORBIFLY MET'MAP TEAM :

Programmation & Développement : Alexandra Zaïnal
Sur une idée originale de : Baudouin d'Aumeries
Assistance à la programmation : Marc-Olivier Méhu
Soutien technique & logistique : Manuel Goepfert

Contact : metmap@orbifly.com




SOURCES & CREDITS :

   NOAA